Portada
METAR-TAF:

METAR-TAF

Aeroports :

Midway, Estats Units d'Amèrica

latitud: 28-13N, longitud: 177-22W, altitud: 4 m

Observació

L'informe es va fer fa 22 minuts, a les 17:56 UTC
Vent 7 kt del Nord-Oest
Temperatura 20°C
Humitat 60%
Pressió 1013 hPa
Visibilitat: 16.1 km

METAR: PMDY 171756Z AUTO 32007KT 10SM 20/12 A2992 RMK AO2 SLP134 T02000122 10200 20189 53012 TSNO

Hora: 08:18 (18:18 UTC)

Pronòstic

L'informe es va fer fa 45 minuts, a les 17:33 UTC
Pronòstic vàlid del 17 a les 18 UTC al 18 a les 18 UTC
Vent 12 kt del Oest/Nord-Oest amb ràfegues de 18 kt
Visibilitat: 10 km
Núvols disperses a una alçada de 2500 ft
Cel ennuvolat a una alçada de 3500 ft

TAF: PMDY 171733Z 1718/1818 30012G18KT P6SM SCT025 BKN035

Observacions i pronòstics meteorològics de més de 4000 aeroports (METAR i TAF).

Les estacions disponibles són els punts grocs i vermells al mapa.

Posi el ratolí al punt desitjat per veure el nom de l'estació.

Feu clic per veure les observacions i els pronòstics meteorològics.

Per canviar el mapa: feu clic els botons verds amb una creu de color negre per apropar; al botó verd amb un guió per allunyar la imatge; o en les fletxes verdes per a mapes adjacents.


METAR-TAF: